sensor_id;sensor_type;location;lat;lon;timestamp;temperature;humidity
79467;SHT30;68933;49.726;9.226;2023-03-30T06:30:29;13.8;74
79467;SHT30;68933;49.726;9.226;2023-03-30T06:41:34;13.7;76
79467;SHT30;68933;49.726;9.226;2023-03-30T06:49:32;13.6;77
79467;SHT30;68933;49.726;9.226;2023-03-30T06:54:22;13.6;77
79467;SHT30;68933;49.726;9.226;2023-03-30T06:55:29;13.6;77
79467;SHT30;68933;49.726;9.226;2023-03-30T06:57:28;13.5;78
79467;SHT30;68933;49.726;9.226;2023-03-30T06:59:29;13.5;78
79467;SHT30;68933;49.726;9.226;2023-03-30T07:01:29;13.5;78
79467;SHT30;68933;49.726;9.226;2023-03-30T07:03:29;13.5;78
79467;SHT30;68933;49.726;9.226;2023-03-30T07:05:29;13.4;78
79467;SHT30;68933;49.726;9.226;2023-03-30T07:07:29;13.4;78
79467;SHT30;68933;49.726;9.226;2023-03-30T07:08:34;13.4;78
79467;SHT30;68933;49.726;9.226;2023-03-30T07:10:47;13.4;78
79467;SHT30;68933;49.726;9.226;2023-03-30T07:13:00;13.4;78
79467;SHT30;68933;49.726;9.226;2023-03-30T07:15:13;13.4;78
79467;SHT30;68933;49.726;9.226;2023-03-30T07:17:26;13.4;80
79467;SHT30;68933;49.726;9.226;2023-03-30T07:19:39;13.4;80
79467;SHT30;68933;49.726;9.226;2023-03-30T07:21:52;13.4;80
79467;SHT30;68933;49.726;9.226;2023-03-30T07:24:05;13.4;80
79467;SHT30;68933;49.726;9.226;2023-03-30T07:26:18;13.4;80
79467;SHT30;68933;49.726;9.226;2023-03-30T07:27:09;13.4;78
79467;SHT30;68933;49.726;9.226;2023-03-30T07:29:22;13.4;78
79467;SHT30;68933;49.726;9.226;2023-03-30T07:31:35;13.4;78
79467;SHT30;68933;49.726;9.226;2023-03-30T07:33:48;13.4;78
79467;SHT30;68933;49.726;9.226;2023-03-30T07:36:01;13.4;78
79467;SHT30;68933;49.726;9.226;2023-03-30T07:38:14;13.4;78
79467;SHT30;68933;49.726;9.226;2023-03-30T07:40:27;13.4;78
79467;SHT30;68933;49.726;9.226;2023-03-30T07:42:40;13.5;80
79467;SHT30;68933;49.726;9.226;2023-03-30T07:44:53;13.5;80
79467;SHT30;68933;49.726;9.226;2023-03-30T07:47:06;13.6;80
79467;SHT30;68933;49.726;9.226;2023-03-30T07:49:19;13.6;80
79467;SHT30;68933;49.726;9.226;2023-03-30T07:51:32;13.6;80
79467;SHT30;68933;49.726;9.226;2023-03-30T07:53:46;13.6;80
79467;SHT30;68933;49.726;9.226;2023-03-30T07:55:58;13.7;80
79467;SHT30;68933;49.726;9.226;2023-03-30T07:58:11;13.7;80
79467;SHT30;68933;49.726;9.226;2023-03-30T08:00:24;13.7;80
79467;SHT30;68933;49.726;9.226;2023-03-30T08:02:37;13.7;80
79467;SHT30;68933;49.726;9.226;2023-03-30T08:04:50;13.7;80
79467;SHT30;68933;49.726;9.226;2023-03-30T08:07:03;13.7;80
79467;SHT30;68933;49.726;9.226;2023-03-30T08:09:16;13.7;80
79467;SHT30;68933;49.726;9.226;2023-03-30T08:11:29;13.8;80
79467;SHT30;68933;49.726;9.226;2023-03-30T08:13:42;13.8;80
79467;SHT30;68933;49.726;9.226;2023-03-30T08:15:55;13.8;80
79467;SHT30;68933;49.726;9.226;2023-03-30T08:18:08;13.8;80
79467;SHT30;68933;49.726;9.226;2023-03-30T08:20:21;13.8;80
79467;SHT30;68933;49.726;9.226;2023-03-30T08:22:34;13.8;80
79467;SHT30;68933;49.726;9.226;2023-03-30T08:24:47;13.8;80
79467;SHT30;68933;49.726;9.226;2023-03-30T08:27:00;13.8;80
79467;SHT30;68933;49.726;9.226;2023-03-30T08:29:13;13.8;80
79467;SHT30;68933;49.726;9.226;2023-03-30T08:31:26;13.8;78
79467;SHT30;68933;49.726;9.226;2023-03-30T08:33:39;13.8;78
79467;SHT30;68933;49.726;9.226;2023-03-30T08:35:52;13.8;78
79467;SHT30;68933;49.726;9.226;2023-03-30T08:38:05;13.8;78
79467;SHT30;68933;49.726;9.226;2023-03-30T08:40:18;13.8;78
79467;SHT30;68933;49.726;9.226;2023-03-30T08:42:35;13.8;78
79467;SHT30;68933;49.726;9.226;2023-03-30T08:44:44;13.8;78
79467;SHT30;68933;49.726;9.226;2023-03-30T08:46:57;13.9;78
79467;SHT30;68933;49.726;9.226;2023-03-30T08:49:11;13.9;78
79467;SHT30;68933;49.726;9.226;2023-03-30T08:51:24;14;78
79467;SHT30;68933;49.726;9.226;2023-03-30T08:53:36;14;78
79467;SHT30;68933;49.726;9.226;2023-03-30T08:55:50;14.1;77
79467;SHT30;68933;49.726;9.226;2023-03-30T08:58:04;14.1;77
79467;SHT30;68933;49.726;9.226;2023-03-30T09:00:17;14.1;77
79467;SHT30;68933;49.726;9.226;2023-03-30T09:02:29;14.2;76
79467;SHT30;68933;49.726;9.226;2023-03-30T09:04:44;14.2;76
79467;SHT30;68933;49.726;9.226;2023-03-30T09:06:55;14.3;76
79467;SHT30;68933;49.726;9.226;2023-03-30T09:09:08;14.3;76
79467;SHT30;68933;49.726;9.226;2023-03-30T09:11:22;14.4;76
79467;SHT30;68933;49.726;9.226;2023-03-30T09:13:34;14.4;76
79467;SHT30;68933;49.726;9.226;2023-03-30T09:15:48;14.4;76
79467;SHT30;68933;49.726;9.226;2023-03-30T09:18:00;14.5;76
79467;SHT30;68933;49.726;9.226;2023-03-30T09:20:13;14.5;76
79467;SHT30;68933;49.726;9.226;2023-03-30T09:22:30;14.7;74
79467;SHT30;68933;49.726;9.226;2023-03-30T09:24:38;14.7;74
79467;SHT30;68933;49.726;9.226;2023-03-30T09:26:53;14.7;74
79467;SHT30;68933;49.726;9.226;2023-03-30T09:29:05;14.7;74
79467;SHT30;68933;49.726;9.226;2023-03-30T09:30:14;14.7;74
79467;SHT30;68933;49.726;9.226;2023-03-30T09:30:15;14.7;74
79467;SHT30;68933;49.726;9.226;2023-03-30T09:32:27;14.7;74
79467;SHT30;68933;49.726;9.226;2023-03-30T09:34:39;14.7;74
79467;SHT30;68933;49.726;9.226;2023-03-30T09:36:52;14.7;74
79467;SHT30;68933;49.726;9.226;2023-03-30T09:39:07;14.7;74
79467;SHT30;68933;49.726;9.226;2023-03-30T09:41:19;14.7;74
79467;SHT30;68933;49.726;9.226;2023-03-30T09:43:31;14.7;74
79467;SHT30;68933;49.726;9.226;2023-03-30T09:45:43;14.7;74
79467;SHT30;68933;49.726;9.226;2023-03-30T09:47:56;14.7;74
79467;SHT30;68933;49.726;9.226;2023-03-30T09:50:09;14.7;74
79467;SHT30;68933;49.726;9.226;2023-03-30T09:52:23;14.7;74
79467;SHT30;68933;49.726;9.226;2023-03-30T09:54:35;14.7;74
79467;SHT30;68933;49.726;9.226;2023-03-30T09:56:48;14.7;74
79467;SHT30;68933;49.726;9.226;2023-03-30T09:59:04;14.7;74
79467;SHT30;68933;49.726;9.226;2023-03-30T10:01:14;14.7;74
79467;SHT30;68933;49.726;9.226;2023-03-30T10:03:27;14.7;74
79467;SHT30;68933;49.726;9.226;2023-03-30T10:05:39;14.7;74
79467;SHT30;68933;49.726;9.226;2023-03-30T10:07:54;14.7;74
79467;SHT30;68933;49.726;9.226;2023-03-30T10:08:22;14.7;74
79467;SHT30;68933;49.726;9.226;2023-03-30T10:10:35;16.2;67
79467;SHT30;68933;49.726;9.226;2023-03-30T10:12:48;16.2;67
79467;SHT30;68933;49.726;9.226;2023-03-30T10:13:43;16.2;67
79467;SHT30;68933;49.726;9.226;2023-03-30T10:14:37;16.1;66
79467;SHT30;68933;49.726;9.226;2023-03-30T10:15:45;16.1;66
79467;SHT30;68933;49.726;9.226;2023-03-30T10:16:34;16.1;66
79467;SHT30;68933;49.726;9.226;2023-03-30T10:18:17;16.1;66
79467;SHT30;68933;49.726;9.226;2023-03-30T10:20:23;16.1;66
79467;SHT30;68933;49.726;9.226;2023-03-30T10:20:53;16.1;66
79467;SHT30;68933;49.726;9.226;2023-03-30T10:21:21;16.2;66
79467;SHT30;68933;49.726;9.226;2023-03-30T10:23:34;16.2;66
79467;SHT30;68933;49.726;9.226;2023-03-30T10:23:38;16.2;66
79467;SHT30;68933;49.726;9.226;2023-03-30T10:24:55;16.2;65
79467;SHT30;68933;49.726;9.226;2023-03-30T10:27:08;16.2;65
79467;SHT30;68933;49.726;9.226;2023-03-30T10:29:22;16.4;65
79467;SHT30;68933;49.726;9.226;2023-03-30T10:31:02;16.4;65
79467;SHT30;68933;49.726;9.226;2023-03-30T10:31:22;16.4;65
79467;SHT30;68933;49.726;9.226;2023-03-30T10:32:22;16.4;65
79467;SHT30;68933;49.726;9.226;2023-03-30T10:33:07;16.4;65
79467;SHT30;68933;49.726;9.226;2023-03-30T10:35:21;16.5;63
79467;SHT30;68933;49.726;9.226;2023-03-30T10:37:34;16.5;63
79467;SHT30;68933;49.726;9.226;2023-03-30T10:39:47;16.7;62
79467;SHT30;68933;49.726;9.226;2023-03-30T10:41:59;16.7;62
79467;SHT30;68933;49.726;9.226;2023-03-30T10:44:16;16.9;62
79467;SHT30;68933;49.726;9.226;2023-03-30T10:46:25;16.9;62
79467;SHT30;68933;49.726;9.226;2023-03-30T10:48:41;16.9;62
79467;SHT30;68933;49.726;9.226;2023-03-30T10:50:53;17.2;61
79467;SHT30;68933;49.726;9.226;2023-03-30T10:53:08;17.2;61
79467;SHT30;68933;49.726;9.226;2023-03-30T10:55:19;17.4;59
79467;SHT30;68933;49.726;9.226;2023-03-30T10:57:32;17.4;59
79467;SHT30;68933;49.726;9.226;2023-03-30T10:59:47;17.5;58
79467;SHT30;68933;49.726;9.226;2023-03-30T11:02:00;17.5;58
79467;SHT30;68933;49.726;9.226;2023-03-30T11:04:10;17.4;58
79467;SHT30;68933;49.726;9.226;2023-03-30T11:06:23;17.4;58
79467;SHT30;68933;49.726;9.226;2023-03-30T11:08:36;17.4;58
79467;SHT30;68933;49.726;9.226;2023-03-30T11:10:49;17.2;58
79467;SHT30;68933;49.726;9.226;2023-03-30T11:13:02;17.2;58
79467;SHT30;68933;49.726;9.226;2023-03-30T11:15:16;17.1;58
79467;SHT30;68933;49.726;9.226;2023-03-30T11:17:28;17.1;58
79467;SHT30;68933;49.726;9.226;2023-03-30T11:19:41;17.1;58
79467;SHT30;68933;49.726;9.226;2023-03-30T11:21:29;17.1;58
79467;SHT30;68933;49.726;9.226;2023-03-30T11:23:43;17.1;59
79467;SHT30;68933;49.726;9.226;2023-03-30T11:25:57;17.1;59
79467;SHT30;68933;49.726;9.226;2023-03-30T11:28:10;17.1;59
79467;SHT30;68933;49.726;9.226;2023-03-30T11:30:23;17.1;59
79467;SHT30;68933;49.726;9.226;2023-03-30T11:32:35;17.1;59
79467;SHT30;68933;49.726;9.226;2023-03-30T11:34:49;17.5;59
79467;SHT30;68933;49.726;9.226;2023-03-30T11:37:01;17.5;59
79467;SHT30;68933;49.726;9.226;2023-03-30T11:39:13;17.9;58
79467;SHT30;68933;49.726;9.226;2023-03-30T11:41:26;17.9;58
79467;SHT30;68933;49.726;9.226;2023-03-30T11:43:39;17.9;58
79467;SHT30;68933;49.726;9.226;2023-03-30T11:45:54;18;57
79467;SHT30;68933;49.726;9.226;2023-03-30T11:48:06;18;57
79467;SHT30;68933;49.726;9.226;2023-03-30T11:50:22;18.1;55
79467;SHT30;68933;49.726;9.226;2023-03-30T11:52:32;18.1;55
79467;SHT30;68933;49.726;9.226;2023-03-30T11:54:48;18.1;55
79467;SHT30;68933;49.726;9.226;2023-03-30T11:56:58;18.1;55
79467;SHT30;68933;49.726;9.226;2023-03-30T11:59:12;18.1;55
79467;SHT30;68933;49.726;9.226;2023-03-30T12:00:52;18.2;55
79467;SHT30;68933;49.726;9.226;2023-03-30T12:02:15;18.2;55
79467;SHT30;68933;49.726;9.226;2023-03-30T12:02:30;18.2;55
79467;SHT30;68933;49.726;9.226;2023-03-30T12:03:34;18.2;55
79467;SHT30;68933;49.726;9.226;2023-03-30T12:04:39;18.2;55
79467;SHT30;68933;49.726;9.226;2023-03-30T12:06:14;18.4;55
79467;SHT30;68933;49.726;9.226;2023-03-30T12:07:11;18.4;55
79467;SHT30;68933;49.726;9.226;2023-03-30T12:09:24;18.4;55
79467;SHT30;68933;49.726;9.226;2023-03-30T12:10:49;18.4;55
79467;SHT30;68933;49.726;9.226;2023-03-30T12:13:01;18.4;55
79467;SHT30;68933;49.726;9.226;2023-03-30T12:15:14;18.4;55
79467;SHT30;68933;49.726;9.226;2023-03-30T12:15:21;18.9;53
79467;SHT30;68933;49.726;9.226;2023-03-30T12:15:37;18.9;53
79467;SHT30;68933;49.726;9.226;2023-03-30T12:15:47;18.9;53
79467;SHT30;68933;49.726;9.226;2023-03-30T12:15:57;18.9;53
79467;SHT30;68933;49.726;9.226;2023-03-30T12:18:13;19.3;51
79467;SHT30;68933;49.726;9.226;2023-03-30T12:20:27;19.3;51
79467;SHT30;68933;49.726;9.226;2023-03-30T12:22:36;19.4;50
79467;SHT30;68933;49.726;9.226;2023-03-30T12:24:50;19.4;50
79467;SHT30;68933;49.726;9.226;2023-03-30T12:27:02;19.5;50
79467;SHT30;68933;49.726;9.226;2023-03-30T12:29:15;19.5;50
79467;SHT30;68933;49.726;9.226;2023-03-30T12:32:33;19.5;50
79467;SHT30;68933;49.726;9.226;2023-03-30T12:33:43;19.4;50
79467;SHT30;68933;49.726;9.226;2023-03-30T12:35:55;19.4;50
79467;SHT30;68933;49.726;9.226;2023-03-30T12:38:07;19.6;50
79467;SHT30;68933;49.726;9.226;2023-03-30T12:40:20;19.6;50
79467;SHT30;68933;49.726;9.226;2023-03-30T12:42:33;19.8;49
79467;SHT30;68933;49.726;9.226;2023-03-30T12:44:48;19.8;49
79467;SHT30;68933;49.726;9.226;2023-03-30T12:47:03;19.8;49
79467;SHT30;68933;49.726;9.226;2023-03-30T12:49:14;19.9;49
79467;SHT30;68933;49.726;9.226;2023-03-30T12:51:29;19.9;49
79467;SHT30;68933;49.726;9.226;2023-03-30T12:53:45;20;47
79467;SHT30;68933;49.726;9.226;2023-03-30T12:55:52;20;47
79467;SHT30;68933;49.726;9.226;2023-03-30T12:58:09;19.5;47
79467;SHT30;68933;49.726;9.226;2023-03-30T13:00:22;19.5;47
79467;SHT30;68933;49.726;9.226;2023-03-30T13:02:41;19.5;47
79467;SHT30;68933;49.726;9.226;2023-03-30T13:04:43;19.2;47
79467;SHT30;68933;49.726;9.226;2023-03-30T13:06:57;19.2;47
79467;SHT30;68933;49.726;9.226;2023-03-30T13:11:22;18.8;49
79467;SHT30;68933;49.726;9.226;2023-03-30T13:13:54;18.6;49
79467;SHT30;68933;49.726;9.226;2023-03-30T13:15:49;18.6;49
79467;SHT30;68933;49.726;9.226;2023-03-30T13:18:02;18.7;50
79467;SHT30;68933;49.726;9.226;2023-03-30T13:20:15;18.7;50
79467;SHT30;68933;49.726;9.226;2023-03-30T13:22:27;18.7;50
79467;SHT30;68933;49.726;9.226;2023-03-30T13:24:42;19;49
79467;SHT30;68933;49.726;9.226;2023-03-30T13:26:53;19;49
79467;SHT30;68933;49.726;9.226;2023-03-30T13:29:07;19.3;49
79467;SHT30;68933;49.726;9.226;2023-03-30T13:31:22;19.3;49
79467;SHT30;68933;49.726;9.226;2023-03-30T13:33:32;19.4;49
79467;SHT30;68933;49.726;9.226;2023-03-30T13:35:47;19.4;49
79467;SHT30;68933;49.726;9.226;2023-03-30T13:38:01;19.4;49
79467;SHT30;68933;49.726;9.226;2023-03-30T13:40:13;19.8;49
79467;SHT30;68933;49.726;9.226;2023-03-30T13:42:29;19.8;49
79467;SHT30;68933;49.726;9.226;2023-03-30T13:44:40;20.3;47
79467;SHT30;68933;49.726;9.226;2023-03-30T13:46:51;20.3;47
79467;SHT30;68933;49.726;9.226;2023-03-30T13:49:07;20.7;49
79467;SHT30;68933;49.726;9.226;2023-03-30T13:51:17;20.7;49
79467;SHT30;68933;49.726;9.226;2023-03-30T13:53:30;21.3;47
79467;SHT30;68933;49.726;9.226;2023-03-30T13:55:43;21.3;47
79467;SHT30;68933;49.726;9.226;2023-03-30T13:57:57;21.4;46
79467;SHT30;68933;49.726;9.226;2023-03-30T14:00:17;21.4;46
79467;SHT30;68933;49.726;9.226;2023-03-30T14:02:21;21.4;46
79467;SHT30;68933;49.726;9.226;2023-03-30T14:04:34;21.6;46
79467;SHT30;68933;49.726;9.226;2023-03-30T14:06:47;21.6;46
79467;SHT30;68933;49.726;9.226;2023-03-30T14:09:08;21.6;45
79467;SHT30;68933;49.726;9.226;2023-03-30T14:11:14;21.6;45
79467;SHT30;68933;49.726;9.226;2023-03-30T14:13:26;21.6;45
79467;SHT30;68933;49.726;9.226;2023-03-30T14:15:39;21.6;45
79467;SHT30;68933;49.726;9.226;2023-03-30T14:17:53;21.6;45
79467;SHT30;68933;49.726;9.226;2023-03-30T14:20:06;21.4;45
79467;SHT30;68933;49.726;9.226;2023-03-30T14:22:19;21.4;45
79467;SHT30;68933;49.726;9.226;2023-03-30T14:24:32;22.1;45
79467;SHT30;68933;49.726;9.226;2023-03-30T14:26:45;22.1;45
79467;SHT30;68933;49.726;9.226;2023-03-30T14:28:58;22.4;43
79467;SHT30;68933;49.726;9.226;2023-03-30T14:29:14;22.4;43
79467;SHT30;68933;49.726;9.226;2023-03-30T14:29:30;22.4;43
79467;SHT30;68933;49.726;9.226;2023-03-30T14:31:43;22.4;43
79467;SHT30;68933;49.726;9.226;2023-03-30T14:33:56;22.5;41
79467;SHT30;68933;49.726;9.226;2023-03-30T14:36:09;22.5;41
79467;SHT30;68933;49.726;9.226;2023-03-30T14:38:23;22.6;41
79467;SHT30;68933;49.726;9.226;2023-03-30T14:40:36;22.6;41
79467;SHT30;68933;49.726;9.226;2023-03-30T14:42:48;23;41
79467;SHT30;68933;49.726;9.226;2023-03-30T14:45:01;23;41
79467;SHT30;68933;49.726;9.226;2023-03-30T14:45:42;23;41
79467;SHT30;68933;49.726;9.226;2023-03-30T14:46:01;23;41
79467;SHT30;68933;49.726;9.226;2023-03-30T14:48:16;23.2;39
79467;SHT30;68933;49.726;9.226;2023-03-30T14:48:39;23.2;39
79467;SHT30;68933;49.726;9.226;2023-03-30T14:48:56;23.2;39
79467;SHT30;68933;49.726;9.226;2023-03-30T14:49:13;23.2;39
79467;SHT30;68933;49.726;9.226;2023-03-30T14:49:26;23.2;39
79467;SHT30;68933;49.726;9.226;2023-03-30T14:50:03;23.2;39
79467;SHT30;68933;49.726;9.226;2023-03-30T14:50:28;23.2;39
79467;SHT30;68933;49.726;9.226;2023-03-30T14:52:41;22.9;38
79467;SHT30;68933;49.726;9.226;2023-03-30T14:52:58;22.9;38
79467;SHT30;68933;49.726;9.226;2023-03-30T14:53:24;22.9;38
79467;SHT30;68933;49.726;9.226;2023-03-30T14:54:16;22.9;38
79467;SHT30;68933;49.726;9.226;2023-03-30T14:56:29;22.9;38
79467;SHT30;68933;49.726;9.226;2023-03-30T14:58:42;22.2;38
79467;SHT30;68933;49.726;9.226;2023-03-30T14:59:04;22.2;38
79467;SHT30;68933;49.726;9.226;2023-03-30T14:59:23;22.2;38
79467;SHT30;68933;49.726;9.226;2023-03-30T15:00:03;22.2;38
79467;SHT30;68933;49.726;9.226;2023-03-30T15:00:44;22.2;38
79467;SHT30;68933;49.726;9.226;2023-03-30T15:01:14;22.2;38
79467;SHT30;68933;49.726;9.226;2023-03-30T15:01:25;22.2;38
79467;SHT30;68933;49.726;9.226;2023-03-30T15:02:04;21.9;38
79467;SHT30;68933;49.726;9.226;2023-03-30T15:02:16;21.9;38
79467;SHT30;68933;49.726;9.226;2023-03-30T15:03:04;21.9;38
79467;SHT30;68933;49.726;9.226;2023-03-30T15:03:26;21.9;38
79467;SHT30;68933;49.726;9.226;2023-03-30T15:04:06;21.9;38
79467;SHT30;68933;49.726;9.226;2023-03-30T15:04:47;21.9;38
79467;SHT30;68933;49.726;9.226;2023-03-30T15:05:34;21.9;38
79467;SHT30;68933;49.726;9.226;2023-03-30T15:05:43;21.9;38
79467;SHT30;68933;49.726;9.226;2023-03-30T15:07:56;21.6;38
79467;SHT30;68933;49.726;9.226;2023-03-30T15:09:13;21.6;38
79467;SHT30;68933;49.726;9.226;2023-03-30T15:11:26;21.6;38
79467;SHT30;68933;49.726;9.226;2023-03-30T15:13:40;21.1;41
79467;SHT30;68933;49.726;9.226;2023-03-30T15:15:52;21.1;41
79467;SHT30;68933;49.726;9.226;2023-03-30T15:17:07;21.1;41
79467;SHT30;68933;49.726;9.226;2023-03-30T15:19:20;20.4;42
79467;SHT30;68933;49.726;9.226;2023-03-30T15:21:32;20.4;42
79467;SHT30;68933;49.726;9.226;2023-03-30T15:23:44;20;44
79467;SHT30;68933;49.726;9.226;2023-03-30T15:25:57;20;44
79467;SHT30;68933;49.726;9.226;2023-03-30T15:27:31;20;44
79467;SHT30;68933;49.726;9.226;2023-03-30T15:28:38;18.8;49
79467;SHT30;68933;49.726;9.226;2023-03-30T15:29:13;18.8;49
79467;SHT30;68933;49.726;9.226;2023-03-30T15:30:02;18.8;49
79467;SHT30;68933;49.726;9.226;2023-03-30T15:31:31;18.8;49
79467;SHT30;68933;49.726;9.226;2023-03-30T15:33:45;18.1;53
79467;SHT30;68933;49.726;9.226;2023-03-30T15:36:03;18.1;53
79467;SHT30;68933;49.726;9.226;2023-03-30T15:38:12;18.3;53
79467;SHT30;68933;49.726;9.226;2023-03-30T15:40:26;18.3;53
79467;SHT30;68933;49.726;9.226;2023-03-30T15:42:36;18.3;53
79467;SHT30;68933;49.726;9.226;2023-03-30T15:44:59;18.3;53
79467;SHT30;68933;49.726;9.226;2023-03-30T15:47:03;18.3;53
79467;SHT30;68933;49.726;9.226;2023-03-30T15:49:16;18.2;52
79467;SHT30;68933;49.726;9.226;2023-03-30T15:51:29;18.2;52
79467;SHT30;68933;49.726;9.226;2023-03-30T15:53:42;18.3;53
79467;SHT30;68933;49.726;9.226;2023-03-30T15:55:54;18.3;53
79467;SHT30;68933;49.726;9.226;2023-03-30T15:58:10;18.6;51
79467;SHT30;68933;49.726;9.226;2023-03-30T16:00:21;18.6;51
79467;SHT30;68933;49.726;9.226;2023-03-30T16:02:36;18.4;51
79467;SHT30;68933;49.726;9.226;2023-03-30T16:04:47;18.4;51
79467;SHT30;68933;49.726;9.226;2023-03-30T16:06:59;18.4;51
79467;SHT30;68933;49.726;9.226;2023-03-30T16:09:13;18.3;51
79467;SHT30;68933;49.726;9.226;2023-03-30T16:11:25;18.3;51
79467;SHT30;68933;49.726;9.226;2023-03-30T16:13:39;18.4;51
79467;SHT30;68933;49.726;9.226;2023-03-30T16:15:51;18.4;51
79467;SHT30;68933;49.726;9.226;2023-03-30T16:18:04;18.6;54
79467;SHT30;68933;49.726;9.226;2023-03-30T16:20:19;18.6;54
79467;SHT30;68933;49.726;9.226;2023-03-30T16:22:30;19.3;53
79467;SHT30;68933;49.726;9.226;2023-03-30T16:24:43;19.3;53
79467;SHT30;68933;49.726;9.226;2023-03-30T16:26:56;19.4;50
79467;SHT30;68933;49.726;9.226;2023-03-30T16:29:11;19.4;50
79467;SHT30;68933;49.726;9.226;2023-03-30T16:31:23;19.4;50
79467;SHT30;68933;49.726;9.226;2023-03-30T16:33:35;19.2;50
79467;SHT30;68933;49.726;9.226;2023-03-30T16:35:48;19.2;50
79467;SHT30;68933;49.726;9.226;2023-03-30T16:38:01;18.7;50
79467;SHT30;68933;49.726;9.226;2023-03-30T16:40:16;18.7;50
79467;SHT30;68933;49.726;9.226;2023-03-30T16:42:27;18.5;50
79467;SHT30;68933;49.726;9.226;2023-03-30T16:44:40;18.5;50
79467;SHT30;68933;49.726;9.226;2023-03-30T16:46:53;18.5;50
79467;SHT30;68933;49.726;9.226;2023-03-30T16:49:09;18.1;53
79467;SHT30;68933;49.726;9.226;2023-03-30T16:51:19;18.1;53
79467;SHT30;68933;49.726;9.226;2023-03-30T16:53:32;17.8;53
79467;SHT30;68933;49.726;9.226;2023-03-30T16:55:45;17.8;53
79467;SHT30;68933;49.726;9.226;2023-03-30T16:57:58;17.6;54
79467;SHT30;68933;49.726;9.226;2023-03-30T17:00:13;17.6;54
79467;SHT30;68933;49.726;9.226;2023-03-30T17:02:24;17.6;54
79467;SHT30;68933;49.726;9.226;2023-03-30T17:04:37;17.5;54
79467;SHT30;68933;49.726;9.226;2023-03-30T17:06:50;17.5;54
79467;SHT30;68933;49.726;9.226;2023-03-30T17:09:04;17.5;54
79467;SHT30;68933;49.726;9.226;2023-03-30T17:11:17;17.5;54
79467;SHT30;68933;49.726;9.226;2023-03-30T17:13:30;17.5;54
79467;SHT30;68933;49.726;9.226;2023-03-30T17:15:42;17.4;54
79467;SHT30;68933;49.726;9.226;2023-03-30T17:17:55;17.4;54
79467;SHT30;68933;49.726;9.226;2023-03-30T17:20:15;17.3;56
79467;SHT30;68933;49.726;9.226;2023-03-30T17:22:21;17.3;56
79467;SHT30;68933;49.726;9.226;2023-03-30T17:24:34;17.3;56
79467;SHT30;68933;49.726;9.226;2023-03-30T17:26:47;17.2;56
79467;SHT30;68933;49.726;9.226;2023-03-30T17:29:00;17.2;56
79467;SHT30;68933;49.726;9.226;2023-03-30T17:31:14;17.1;56
79467;SHT30;68933;49.726;9.226;2023-03-30T17:33:27;17.1;56
79467;SHT30;68933;49.726;9.226;2023-03-30T17:35:39;16.9;56
79467;SHT30;68933;49.726;9.226;2023-03-30T17:37:53;16.9;56
79467;SHT30;68933;49.726;9.226;2023-03-30T17:40:14;16.9;56
79467;SHT30;68933;49.726;9.226;2023-03-30T17:42:18;16.7;53
79467;SHT30;68933;49.726;9.226;2023-03-30T17:44:31;16.7;53
79467;SHT30;68933;49.726;9.226;2023-03-30T17:46:44;16.5;53
79467;SHT30;68933;49.726;9.226;2023-03-30T17:48:57;16.5;53
79467;SHT30;68933;49.726;9.226;2023-03-30T17:51:10;16.4;52
79467;SHT30;68933;49.726;9.226;2023-03-30T17:53:23;16.4;52
79467;SHT30;68933;49.726;9.226;2023-03-30T17:55:36;16.4;52
79467;SHT30;68933;49.726;9.226;2023-03-30T17:57:49;16.2;53
79467;SHT30;68933;49.726;9.226;2023-03-30T18:00:03;16.2;53
79467;SHT30;68933;49.726;9.226;2023-03-30T18:02:15;16;53
79467;SHT30;68933;49.726;9.226;2023-03-30T18:04:28;16;53
79467;SHT30;68933;49.726;9.226;2023-03-30T18:06:41;15.9;53
79467;SHT30;68933;49.726;9.226;2023-03-30T18:08:54;15.9;53
79467;SHT30;68933;49.726;9.226;2023-03-30T18:11:07;15.9;53
79467;SHT30;68933;49.726;9.226;2023-03-30T18:13:21;15.7;53
79467;SHT30;68933;49.726;9.226;2023-03-30T18:15:33;15.7;53
79467;SHT30;68933;49.726;9.226;2023-03-30T18:17:46;15.6;53
79467;SHT30;68933;49.726;9.226;2023-03-30T18:19:59;15.6;53
79467;SHT30;68933;49.726;9.226;2023-03-30T18:22:13;15.5;53
79467;SHT30;68933;49.726;9.226;2023-03-30T18:24:25;15.5;53
79467;SHT30;68933;49.726;9.226;2023-03-30T18:26:38;15.5;53
79467;SHT30;68933;49.726;9.226;2023-03-30T18:28:51;15.4;53
79467;SHT30;68933;49.726;9.226;2023-03-30T18:31:04;15.4;53
79467;SHT30;68933;49.726;9.226;2023-03-30T18:33:18;15.3;54
79467;SHT30;68933;49.726;9.226;2023-03-30T18:35:31;15.3;54
79467;SHT30;68933;49.726;9.226;2023-03-30T18:37:44;15.1;54
79467;SHT30;68933;49.726;9.226;2023-03-30T18:39:56;15.1;54
79467;SHT30;68933;49.726;9.226;2023-03-30T18:42:09;15.1;54
79467;SHT30;68933;49.726;9.226;2023-03-30T18:44:22;15.1;54
79467;SHT30;68933;49.726;9.226;2023-03-30T18:46:35;15.1;54
79467;SHT30;68933;49.726;9.226;2023-03-30T18:48:48;14.9;56
79467;SHT30;68933;49.726;9.226;2023-03-30T18:51:01;14.9;56
79467;SHT30;68933;49.726;9.226;2023-03-30T18:53:15;14.9;56
79467;SHT30;68933;49.726;9.226;2023-03-30T18:55:28;14.9;56
79467;SHT30;68933;49.726;9.226;2023-03-30T18:57:41;14.7;57
79467;SHT30;68933;49.726;9.226;2023-03-30T18:59:53;14.7;57
79467;SHT30;68933;49.726;9.226;2023-03-30T19:02:07;14.6;57
79467;SHT30;68933;49.726;9.226;2023-03-30T19:04:19;14.6;57
79467;SHT30;68933;49.726;9.226;2023-03-30T19:06:32;14.6;57
79467;SHT30;68933;49.726;9.226;2023-03-30T19:08:45;14.5;57
79467;SHT30;68933;49.726;9.226;2023-03-30T19:10:58;14.5;57
79467;SHT30;68933;49.726;9.226;2023-03-30T19:13:12;14.5;57
79467;SHT30;68933;49.726;9.226;2023-03-30T19:15:26;14.5;57
79467;SHT30;68933;49.726;9.226;2023-03-30T19:17:37;14.4;57
79467;SHT30;68933;49.726;9.226;2023-03-30T19:19:50;14.4;57
79467;SHT30;68933;49.726;9.226;2023-03-30T19:22:03;14.4;57
79467;SHT30;68933;49.726;9.226;2023-03-30T19:24:16;14.4;57
79467;SHT30;68933;49.726;9.226;2023-03-30T19:26:29;14.4;57
79467;SHT30;68933;49.726;9.226;2023-03-30T19:28:42;14.4;57
79467;SHT30;68933;49.726;9.226;2023-03-30T19:30:55;14.4;58
79467;SHT30;68933;49.726;9.226;2023-03-30T19:33:09;14.4;58
79467;SHT30;68933;49.726;9.226;2023-03-30T19:35:22;14.4;58
79467;SHT30;68933;49.726;9.226;2023-03-30T19:37:35;14.4;58
79467;SHT30;68933;49.726;9.226;2023-03-30T19:39:47;14.4;58
79467;SHT30;68933;49.726;9.226;2023-03-30T19:42:00;14.4;58
79467;SHT30;68933;49.726;9.226;2023-03-30T19:44:13;14.4;58
79467;SHT30;68933;49.726;9.226;2023-03-30T19:46:26;14.3;58
79467;SHT30;68933;49.726;9.226;2023-03-30T19:48:40;14.3;58
79467;SHT30;68933;49.726;9.226;2023-03-30T19:50:52;14.2;59
79467;SHT30;68933;49.726;9.226;2023-03-30T19:53:06;14.2;59
79467;SHT30;68933;49.726;9.226;2023-03-30T19:55:19;14.2;59
79467;SHT30;68933;49.726;9.226;2023-03-30T19:57:31;14.2;59
79467;SHT30;68933;49.726;9.226;2023-03-30T19:59:44;14.2;59
79467;SHT30;68933;49.726;9.226;2023-03-30T20:01:57;14.2;59
79467;SHT30;68933;49.726;9.226;2023-03-30T20:04:10;14.2;59
79467;SHT30;68933;49.726;9.226;2023-03-30T20:06:24;14.2;59
79467;SHT30;68933;49.726;9.226;2023-03-30T20:08:36;14.2;60